createdAt,value
2023-06-10T00:01:00.757Z,20.30
2023-06-10T00:03:27.524Z,20.20
2023-06-10T00:05:54.151Z,20.30
2023-06-10T00:08:20.687Z,20.20
2023-06-10T00:10:47.429Z,20.20
2023-06-10T00:13:13.979Z,20.20
2023-06-10T00:15:40.707Z,20.20
2023-06-10T00:18:07.690Z,20.10
2023-06-10T00:20:38.822Z,20.10
2023-06-10T00:23:07.481Z,20.00
2023-06-10T00:25:34.160Z,19.90
2023-06-10T00:28:00.700Z,19.80
2023-06-10T00:30:29.521Z,19.80
2023-06-10T00:32:56.646Z,19.80
2023-06-10T00:35:23.409Z,19.80
2023-06-10T00:37:49.973Z,19.80
2023-06-10T00:40:16.504Z,19.70
2023-06-10T00:42:43.155Z,19.70
2023-06-10T00:45:10.455Z,19.70
2023-06-10T00:47:37.575Z,19.60
2023-06-10T00:50:05.508Z,19.50
2023-06-10T00:52:32.401Z,19.30
2023-06-10T00:55:00.568Z,19.30
2023-06-10T00:57:27.704Z,19.30
2023-06-10T00:59:55.470Z,19.30
2023-06-10T01:02:22.248Z,19.30
2023-06-10T01:04:49.744Z,19.30
2023-06-10T01:07:40.979Z,19.30
2023-06-10T01:10:20.902Z,19.30
2023-06-10T01:13:00.407Z,19.40
2023-06-10T01:15:27.313Z,19.30
2023-06-10T01:18:02.584Z,19.20
2023-06-10T01:20:33.333Z,19.10
2023-06-10T01:23:01.621Z,19.20
2023-06-10T01:25:29.807Z,19.20
2023-06-10T01:28:10.280Z,19.30
2023-06-10T01:31:17.969Z,19.10
2023-06-10T01:33:52.252Z,19.00
2023-06-10T01:36:20.367Z,19.00
2023-06-10T01:38:48.952Z,19.00
2023-06-10T01:41:18.611Z,19.00
2023-06-10T01:43:46.706Z,18.80
2023-06-10T01:46:15.351Z,18.70
2023-06-10T01:48:43.168Z,18.80
2023-06-10T01:51:09.859Z,18.80
2023-06-10T01:53:36.976Z,18.60
2023-06-10T01:56:03.552Z,18.40
2023-06-10T01:58:30.159Z,18.30
2023-06-10T02:00:56.812Z,18.30
2023-06-10T02:03:23.636Z,18.30
2023-06-10T02:05:50.596Z,18.30
2023-06-10T02:08:17.252Z,18.20
2023-06-10T02:10:43.787Z,18.20
2023-06-10T02:13:10.422Z,18.30
2023-06-10T02:15:37.003Z,18.30
2023-06-10T02:18:04.175Z,18.40
2023-06-10T02:20:30.779Z,18.40
2023-06-10T02:22:57.357Z,18.50
2023-06-10T02:25:23.966Z,18.60
2023-06-10T02:27:50.865Z,18.60
2023-06-10T02:30:18.069Z,18.60
2023-06-10T02:32:48.707Z,18.60
2023-06-10T02:35:16.945Z,18.40
2023-06-10T02:37:43.967Z,18.30
2023-06-10T02:40:11.422Z,18.20
2023-06-10T02:42:39.027Z,18.10
2023-06-10T02:45:06.848Z,18.10
2023-06-10T02:47:41.048Z,18.00
2023-06-10T02:50:08.548Z,17.90
2023-06-10T02:52:42.985Z,17.90
2023-06-10T02:55:11.012Z,17.90
2023-06-10T02:57:39.796Z,17.90
2023-06-10T03:00:12.008Z,17.90
2023-06-10T03:02:40.272Z,17.80
2023-06-10T03:05:12.401Z,17.80
2023-06-10T03:07:42.155Z,17.70
2023-06-10T03:10:09.237Z,17.60
2023-06-10T03:12:38.259Z,17.60
2023-06-10T03:15:05.791Z,17.80
2023-06-10T03:17:32.770Z,18.00
2023-06-10T03:19:59.387Z,18.00
2023-06-10T03:22:25.973Z,17.90
2023-06-10T03:25:00.843Z,18.00
2023-06-10T03:27:30.457Z,18.00
2023-06-10T03:30:00.159Z,17.90
2023-06-10T03:32:27.651Z,17.90
2023-06-10T03:34:58.260Z,17.90
2023-06-10T03:37:27.136Z,17.80
2023-06-10T03:39:54.094Z,17.80
2023-06-10T03:42:20.827Z,17.70
2023-06-10T03:44:47.499Z,17.60
2023-06-10T03:47:14.232Z,17.60
2023-06-10T03:49:41.500Z,17.60
2023-06-10T03:52:08.473Z,17.70
2023-06-10T03:54:37.987Z,17.80
2023-06-10T03:57:04.950Z,17.80
2023-06-10T03:59:31.537Z,17.80
2023-06-10T04:01:58.110Z,17.80
2023-06-10T04:04:24.959Z,17.80
2023-06-10T04:06:51.778Z,18.00
2023-06-10T04:09:18.437Z,18.10
2023-06-10T04:11:45.162Z,18.10
2023-06-10T04:14:11.904Z,18.20
2023-06-10T04:16:40.578Z,18.30
2023-06-10T04:19:07.197Z,18.20
2023-06-10T04:21:34.032Z,18.10
2023-06-10T04:24:00.801Z,18.00
2023-06-10T04:26:28.556Z,18.00
2023-06-10T04:28:55.551Z,17.90
2023-06-10T04:31:22.962Z,17.90
2023-06-10T04:33:49.588Z,17.90
2023-06-10T04:36:16.518Z,18.10
2023-06-10T04:38:43.571Z,18.30
2023-06-10T04:41:10.190Z,18.30
2023-06-10T04:43:37.817Z,18.40
2023-06-10T04:46:06.444Z,18.50
2023-06-10T04:48:36.750Z,18.60
2023-06-10T04:51:03.991Z,18.70
2023-06-10T04:53:30.846Z,18.80
2023-06-10T04:55:58.592Z,18.90
2023-06-10T04:58:25.383Z,19.00
2023-06-10T05:00:52.032Z,19.10
2023-06-10T05:03:18.739Z,19.20
2023-06-10T05:05:45.450Z,19.20
2023-06-10T05:08:12.061Z,19.40
2023-06-10T05:10:38.654Z,19.50
2023-06-10T05:13:05.228Z,19.60
2023-06-10T05:15:32.020Z,19.60
2023-06-10T05:17:59.618Z,19.70
2023-06-10T05:20:26.969Z,19.60
2023-06-10T05:22:53.959Z,19.60
2023-06-10T05:25:20.630Z,19.80
2023-06-10T05:27:47.193Z,19.90
2023-06-10T05:30:14.015Z,20.00
2023-06-10T05:32:40.683Z,20.10
2023-06-10T05:35:07.889Z,20.30
2023-06-10T05:37:35.854Z,20.40
2023-06-10T05:40:02.496Z,20.50
2023-06-10T05:42:29.033Z,20.60
2023-06-10T05:44:55.646Z,20.70
2023-06-10T05:47:22.275Z,20.90
2023-06-10T05:49:50.929Z,21.00
2023-06-10T05:52:17.540Z,21.20
2023-06-10T05:54:44.182Z,21.30
2023-06-10T05:57:11.349Z,21.20
2023-06-10T05:59:37.958Z,21.40
2023-06-10T06:02:04.871Z,21.50
2023-06-10T06:04:31.541Z,21.60
2023-06-10T06:06:58.072Z,21.60
2023-06-10T06:09:24.617Z,21.70
2023-06-10T06:11:51.225Z,21.70
2023-06-10T06:14:17.751Z,21.80
2023-06-10T06:16:44.251Z,21.90
2023-06-10T06:19:12.260Z,22.10
2023-06-10T06:21:38.831Z,22.20
2023-06-10T06:24:05.845Z,22.20
2023-06-10T06:26:32.493Z,22.30
2023-06-10T06:28:59.527Z,22.50
2023-06-10T06:31:26.473Z,22.70
2023-06-10T06:33:53.234Z,22.80
2023-06-10T06:36:20.009Z,22.80
2023-06-10T06:38:46.527Z,22.90
2023-06-10T06:41:13.491Z,23.00
2023-06-10T06:43:40.020Z,23.10
2023-06-10T06:46:38.576Z,23.10
2023-06-10T06:49:05.106Z,23.10
2023-06-10T06:51:31.668Z,23.20
2023-06-10T06:54:00.027Z,23.30
2023-06-10T06:56:28.177Z,23.40
2023-06-10T06:58:57.648Z,23.40
2023-06-10T07:01:24.635Z,23.50
2023-06-10T07:03:51.310Z,23.60
2023-06-10T07:06:17.901Z,23.70
2023-06-10T07:08:44.498Z,23.80
2023-06-10T07:11:11.069Z,23.80
2023-06-10T07:13:37.662Z,24.00
2023-06-10T07:16:04.599Z,24.10
2023-06-10T07:18:31.319Z,24.20
2023-06-10T07:20:57.967Z,24.20
2023-06-10T07:23:24.557Z,24.30
2023-06-10T07:25:51.437Z,24.40
2023-06-10T07:28:18.033Z,24.50
2023-06-10T07:30:44.786Z,24.50
2023-06-10T07:33:12.151Z,24.60
2023-06-10T07:35:38.818Z,24.70
2023-06-10T07:38:05.384Z,24.80
2023-06-10T07:40:34.493Z,24.80
2023-06-10T07:43:01.969Z,24.80
2023-06-10T07:45:28.589Z,24.90
2023-06-10T07:47:56.241Z,25.00
2023-06-10T07:50:22.877Z,25.10
2023-06-10T07:52:49.425Z,25.30
2023-06-10T07:55:16.054Z,25.40
2023-06-10T07:57:42.737Z,25.50
2023-06-10T08:00:09.808Z,25.70
2023-06-10T08:02:45.430Z,25.80
2023-06-10T08:05:12.554Z,25.90
2023-06-10T08:07:40.951Z,25.80
2023-06-10T08:10:08.483Z,25.90
2023-06-10T08:12:36.110Z,25.90
2023-06-10T08:15:05.068Z,26.00
2023-06-10T08:17:31.934Z,26.20
2023-06-10T08:19:58.562Z,26.10
2023-06-10T08:22:25.358Z,26.10
2023-06-10T08:24:52.170Z,26.40
2023-06-10T08:27:18.762Z,26.50
2023-06-10T08:29:45.379Z,26.70
2023-06-10T08:32:12.102Z,26.70
2023-06-10T08:34:38.813Z,26.60
2023-06-10T08:37:05.863Z,26.70
2023-06-10T08:39:35.327Z,26.90
2023-06-10T08:42:26.201Z,27.10
2023-06-10T08:44:57.297Z,27.10
2023-06-10T08:47:25.699Z,27.00
2023-06-10T08:49:57.800Z,27.00
2023-06-10T08:52:27.523Z,27.00
2023-06-10T08:54:59.990Z,27.10
2023-06-10T08:57:27.988Z,27.10
2023-06-10T08:59:57.317Z,27.20
2023-06-10T09:02:25.162Z,27.10
2023-06-10T09:04:52.811Z,27.30
2023-06-10T09:07:19.960Z,27.30
2023-06-10T09:09:46.725Z,27.50
2023-06-10T09:12:15.294Z,27.60
2023-06-10T09:14:43.325Z,27.70
2023-06-10T09:17:10.056Z,27.80
2023-06-10T09:19:37.765Z,27.90
2023-06-10T09:22:04.840Z,28.00
2023-06-10T09:24:32.287Z,28.00
2023-06-10T09:27:07.543Z,28.10
2023-06-10T09:30:07.307Z,28.20
2023-06-10T09:32:40.403Z,28.40
2023-06-10T09:35:10.279Z,28.40
2023-06-10T09:37:39.829Z,28.20
2023-06-10T09:40:08.815Z,28.10
2023-06-10T09:42:37.948Z,28.00
2023-06-10T09:45:06.576Z,27.90
2023-06-10T09:47:33.254Z,27.80
2023-06-10T09:50:00.179Z,27.80
2023-06-10T09:52:28.501Z,27.70
2023-06-10T09:55:01.240Z,27.80
2023-06-10T09:57:32.069Z,27.70
2023-06-10T09:59:58.623Z,27.70
2023-06-10T10:02:25.288Z,27.60
2023-06-10T10:04:52.036Z,27.60
2023-06-10T10:07:18.785Z,27.90
2023-06-10T10:09:45.435Z,27.80
2023-06-10T10:12:15.429Z,27.70
2023-06-10T10:14:49.419Z,27.70
2023-06-10T10:17:17.293Z,27.90
2023-06-10T10:19:58.790Z,27.90
2023-06-10T10:22:28.037Z,28.00
2023-06-10T10:24:58.379Z,27.90
2023-06-10T10:27:34.585Z,27.90
2023-06-10T10:30:05.390Z,27.90
2023-06-10T10:32:55.131Z,28.00
2023-06-10T10:35:26.172Z,27.80
2023-06-10T10:37:54.063Z,27.80
2023-06-10T10:40:22.952Z,27.60
2023-06-10T10:42:53.704Z,27.70
2023-06-10T10:45:22.993Z,27.90
2023-06-10T10:47:54.700Z,28.00
2023-06-10T10:50:22.155Z,28.20
2023-06-10T10:52:57.965Z,28.50
2023-06-10T10:55:25.690Z,28.50
2023-06-10T10:58:07.202Z,28.40
2023-06-10T11:00:36.273Z,28.50
2023-06-10T11:03:12.094Z,28.70
2023-06-10T11:05:42.322Z,28.80
2023-06-10T11:08:10.019Z,28.80
2023-06-10T11:10:37.489Z,28.80
2023-06-10T11:13:14.380Z,28.80
2023-06-10T11:15:48.630Z,28.80
2023-06-10T11:18:15.372Z,29.00
2023-06-10T11:20:51.058Z,29.10
2023-06-10T11:23:30.785Z,29.10
2023-06-10T11:26:13.668Z,29.30
2023-06-10T11:28:41.191Z,29.30
2023-06-10T11:31:07.856Z,29.40
2023-06-10T11:33:37.975Z,29.20
2023-06-10T11:36:08.258Z,29.30
2023-06-10T11:38:34.938Z,29.30
2023-06-10T11:41:03.273Z,29.20
2023-06-10T11:43:31.414Z,29.00
2023-06-10T11:45:58.640Z,29.20
2023-06-10T11:48:25.244Z,29.40
2023-06-10T11:50:53.783Z,29.30
2023-06-10T11:53:20.442Z,29.50
2023-06-10T11:55:49.455Z,29.50
2023-06-10T11:58:20.910Z,29.60
2023-06-10T12:00:47.737Z,29.70
2023-06-10T12:03:15.049Z,30.00
2023-06-10T12:05:41.870Z,30.40
2023-06-10T12:08:12.827Z,30.40
2023-06-10T12:10:43.332Z,30.60
2023-06-10T12:13:10.697Z,30.70
2023-06-10T12:15:37.504Z,30.50
2023-06-10T12:18:04.735Z,30.20
2023-06-10T12:20:34.424Z,29.90
2023-06-10T12:23:09.374Z,29.90
2023-06-10T12:25:40.430Z,29.80
2023-06-10T12:28:11.393Z,30.10
2023-06-10T12:30:38.036Z,30.40
2023-06-10T12:33:04.705Z,30.50
2023-06-10T12:35:31.671Z,30.60
2023-06-10T12:38:07.986Z,30.60
2023-06-10T12:40:37.206Z,30.70
2023-06-10T12:43:04.233Z,31.00
2023-06-10T12:45:40.357Z,31.00
2023-06-10T12:48:33.127Z,30.90
2023-06-10T12:51:00.553Z,30.90
2023-06-10T12:53:27.790Z,30.90
2023-06-10T12:55:54.556Z,31.00
2023-06-10T12:58:22.914Z,31.00
2023-06-10T13:00:50.134Z,31.10
2023-06-10T13:03:17.692Z,31.00
2023-06-10T13:05:44.306Z,30.80
2023-06-10T13:08:13.797Z,30.60
2023-06-10T13:10:40.348Z,30.30
2023-06-10T13:13:08.677Z,30.20
2023-06-10T13:15:42.765Z,30.00
2023-06-10T13:18:10.717Z,29.90
2023-06-10T13:20:37.512Z,29.80
2023-06-10T13:23:04.254Z,29.70
2023-06-10T13:25:31.135Z,29.70
2023-06-10T13:27:57.782Z,29.60
2023-06-10T13:30:24.466Z,29.80
2023-06-10T13:32:51.156Z,29.80
2023-06-10T13:35:17.893Z,29.90
2023-06-10T13:37:44.463Z,30.20
2023-06-10T13:40:11.786Z,30.30
2023-06-10T13:42:38.440Z,30.50
2023-06-10T13:45:06.985Z,30.70
2023-06-10T13:47:33.716Z,30.60
2023-06-10T13:50:00.764Z,30.50
2023-06-10T13:52:27.291Z,30.70
2023-06-10T13:54:53.843Z,31.00
2023-06-10T13:57:20.406Z,31.10
2023-06-10T13:59:47.003Z,31.20
2023-06-10T14:02:13.714Z,31.20
2023-06-10T14:04:40.403Z,31.20
2023-06-10T14:07:06.961Z,31.10
2023-06-10T14:09:33.512Z,31.00
2023-06-10T14:12:00.133Z,30.80
2023-06-10T14:14:26.772Z,30.80
2023-06-10T14:16:53.427Z,30.80
2023-06-10T14:19:19.961Z,30.70
2023-06-10T14:21:46.527Z,30.90
2023-06-10T14:24:13.158Z,30.80
2023-06-10T14:26:39.747Z,31.00
2023-06-10T14:29:06.268Z,31.20
2023-06-10T14:31:32.888Z,31.40
2023-06-10T14:33:59.865Z,31.40
2023-06-10T14:36:26.590Z,31.50
2023-06-10T14:38:53.236Z,31.50
2023-06-10T14:41:19.762Z,31.40
2023-06-10T14:43:46.310Z,31.20
2023-06-10T14:46:13.101Z,30.90
2023-06-10T14:48:39.677Z,30.80
2023-06-10T14:51:06.398Z,30.60
2023-06-10T14:53:32.922Z,30.70
2023-06-10T14:55:59.392Z,31.00
2023-06-10T14:58:25.930Z,31.10
2023-06-10T15:00:52.603Z,31.30
2023-06-10T15:03:19.355Z,31.40
2023-06-10T15:05:46.001Z,31.30
2023-06-10T15:08:12.693Z,31.20
2023-06-10T15:10:39.244Z,31.20
2023-06-10T15:13:06.093Z,31.20
2023-06-10T15:15:32.675Z,31.40
2023-06-10T15:17:59.299Z,31.40
2023-06-10T15:20:26.005Z,31.50
2023-06-10T15:22:52.792Z,31.40
2023-06-10T15:25:29.929Z,31.40
2023-06-10T15:27:57.706Z,31.50
2023-06-10T15:30:24.254Z,31.60
2023-06-10T15:32:50.935Z,31.60
2023-06-10T15:35:18.458Z,31.50
2023-06-10T15:37:45.126Z,31.50
2023-06-10T15:40:12.098Z,31.40
2023-06-10T15:42:38.948Z,31.30
2023-06-10T15:45:06.366Z,31.30
2023-06-10T15:47:32.925Z,31.20
2023-06-10T15:49:59.624Z,31.30
2023-06-10T15:52:26.257Z,31.30
2023-06-10T15:54:52.812Z,31.30
2023-06-10T15:57:20.353Z,31.40
2023-06-10T15:59:46.927Z,31.50
2023-06-10T16:02:13.569Z,31.60
2023-06-10T16:04:40.274Z,31.60
2023-06-10T16:07:06.965Z,31.50
2023-06-10T16:09:33.751Z,31.30
2023-06-10T16:12:00.324Z,31.40
2023-06-10T16:14:26.885Z,31.40
2023-06-10T16:16:53.656Z,31.40
2023-06-10T16:19:20.273Z,31.60
2023-06-10T16:21:47.361Z,31.60
2023-06-10T16:24:14.139Z,31.60
2023-06-10T16:26:40.808Z,31.80
2023-06-10T16:29:07.441Z,31.90
2023-06-10T16:31:34.071Z,31.90
2023-06-10T16:34:01.746Z,32.00
2023-06-10T16:36:28.374Z,32.00
2023-06-10T16:38:58.511Z,32.00
2023-06-10T16:41:25.291Z,32.10
2023-06-10T16:43:51.878Z,32.30
2023-06-10T16:46:18.632Z,32.40
2023-06-10T16:48:45.754Z,32.30
2023-06-10T16:51:12.599Z,32.40
2023-06-10T16:53:39.177Z,32.40
2023-06-10T16:56:06.044Z,32.40
2023-06-10T16:58:32.893Z,32.40
2023-06-10T17:01:09.004Z,32.60
2023-06-10T17:03:36.158Z,32.80
2023-06-10T17:06:02.836Z,33.00
2023-06-10T17:08:29.550Z,33.00
2023-06-10T17:10:56.113Z,33.10
2023-06-10T17:13:22.737Z,33.30
2023-06-10T17:15:49.379Z,33.60
2023-06-10T17:18:16.077Z,33.80
2023-06-10T17:20:42.771Z,34.00
2023-06-10T17:23:09.386Z,34.10
2023-06-10T17:25:37.631Z,34.20
2023-06-10T17:28:04.262Z,34.30
2023-06-10T17:30:30.837Z,34.50
2023-06-10T17:32:57.456Z,34.50
2023-06-10T17:35:24.096Z,34.50
2023-06-10T17:37:50.709Z,34.90
2023-06-10T17:40:17.654Z,35.10
2023-06-10T17:42:44.177Z,35.10
2023-06-10T17:45:11.208Z,35.10
2023-06-10T17:47:38.085Z,35.00
2023-06-10T17:50:05.259Z,35.20
2023-06-10T17:52:32.218Z,35.40
2023-06-10T17:54:59.764Z,35.40
2023-06-10T17:57:26.330Z,35.60
2023-06-10T17:59:52.890Z,35.70
2023-06-10T18:02:19.509Z,35.80
2023-06-10T18:04:46.169Z,35.90
2023-06-10T18:07:12.733Z,35.80
2023-06-10T18:09:39.289Z,35.00
2023-06-10T18:12:06.711Z,34.20
2023-06-10T18:14:33.397Z,33.40
2023-06-10T18:16:59.998Z,32.60
2023-06-10T18:19:26.497Z,31.90
2023-06-10T18:21:52.984Z,31.40
2023-06-10T18:24:21.957Z,30.90
2023-06-10T18:26:48.684Z,30.50
2023-06-10T18:29:15.354Z,30.20
2023-06-10T18:31:41.919Z,29.90
2023-06-10T18:34:08.774Z,29.70
2023-06-10T18:36:35.396Z,29.50
2023-06-10T18:39:02.017Z,29.30
2023-06-10T18:41:28.726Z,29.10
2023-06-10T18:43:56.751Z,29.00
2023-06-10T18:46:24.360Z,28.90
2023-06-10T18:48:51.297Z,28.80
2023-06-10T18:51:17.970Z,28.60
2023-06-10T18:53:44.563Z,28.50
2023-06-10T18:56:12.626Z,28.40
2023-06-10T18:58:39.263Z,28.30
2023-06-10T19:01:06.067Z,28.20
2023-06-10T19:03:32.962Z,28.20
2023-06-10T19:06:01.065Z,28.10
2023-06-10T19:08:30.731Z,28.00
2023-06-10T19:10:57.284Z,27.90
2023-06-10T19:13:25.465Z,27.80
2023-06-10T19:15:51.988Z,27.70
2023-06-10T19:18:18.623Z,27.70
2023-06-10T19:20:45.186Z,27.60
2023-06-10T19:23:11.977Z,27.50
2023-06-10T19:25:38.590Z,27.40
2023-06-10T19:28:08.977Z,27.40
2023-06-10T19:30:36.361Z,27.30
2023-06-10T19:33:03.149Z,27.20
2023-06-10T19:35:30.377Z,27.10
2023-06-10T19:37:57.522Z,27.10
2023-06-10T19:40:24.172Z,27.00
2023-06-10T19:42:51.995Z,27.00
2023-06-10T19:45:18.644Z,26.90
2023-06-10T19:47:45.646Z,26.80
2023-06-10T19:50:12.693Z,26.80
2023-06-10T19:52:39.344Z,26.70
2023-06-10T19:55:06.764Z,26.60
2023-06-10T19:57:33.307Z,26.60
2023-06-10T19:59:59.851Z,26.50
2023-06-10T20:02:26.566Z,26.40
2023-06-10T20:04:53.399Z,26.30
2023-06-10T20:07:20.090Z,26.30
2023-06-10T20:09:46.648Z,26.30
2023-06-10T20:12:13.265Z,26.20
2023-06-10T20:14:39.827Z,26.20
2023-06-10T20:17:06.565Z,26.10
2023-06-10T20:19:33.068Z,26.00
2023-06-10T20:22:00.321Z,25.90
2023-06-10T20:24:27.023Z,25.90
2023-06-10T20:26:53.916Z,25.80
2023-06-10T20:29:21.572Z,25.80
2023-06-10T20:31:48.186Z,25.90
2023-06-10T20:34:14.725Z,25.90
2023-06-10T20:36:41.289Z,25.80
2023-06-10T20:39:08.181Z,25.70
2023-06-10T20:41:35.554Z,25.60
2023-06-10T20:44:02.192Z,25.60
2023-06-10T20:46:28.822Z,25.50
2023-06-10T20:48:55.596Z,25.50
2023-06-10T20:51:22.724Z,25.40
2023-06-10T20:53:49.279Z,25.30
2023-06-10T20:56:15.866Z,25.20
2023-06-10T20:58:42.437Z,25.20
2023-06-10T21:01:09.044Z,25.10
2023-06-10T21:03:36.104Z,25.00
2023-06-10T21:06:03.473Z,24.90
2023-06-10T21:08:30.141Z,24.80
2023-06-10T21:10:56.794Z,24.80
2023-06-10T21:13:23.408Z,24.80
2023-06-10T21:15:49.969Z,24.80
2023-06-10T21:18:16.672Z,24.80
2023-06-10T21:20:43.226Z,24.80
2023-06-10T21:23:09.749Z,24.70
2023-06-10T21:25:36.504Z,24.70
2023-06-10T21:28:04.185Z,24.70
2023-06-10T21:30:30.820Z,24.60
2023-06-10T21:32:57.498Z,24.60
2023-06-10T21:35:24.093Z,24.50
2023-06-10T21:37:51.373Z,24.50
2023-06-10T21:40:19.195Z,24.40
2023-06-10T21:42:45.705Z,24.40
2023-06-10T21:45:12.668Z,24.40
2023-06-10T21:47:39.723Z,24.30
2023-06-10T21:50:06.968Z,24.30
2023-06-10T21:52:33.635Z,24.30
2023-06-10T21:55:00.274Z,24.30
2023-06-10T21:57:26.813Z,24.20
2023-06-10T21:59:53.879Z,24.20
2023-06-10T22:02:20.759Z,24.20
2023-06-10T22:04:47.347Z,24.10
2023-06-10T22:07:14.056Z,24.10
2023-06-10T22:09:49.783Z,24.10
2023-06-10T22:12:17.521Z,24.00
2023-06-10T22:14:44.558Z,24.10
2023-06-10T22:17:12.757Z,24.10
2023-06-10T22:19:39.583Z,24.00
2023-06-10T22:22:07.603Z,23.90
2023-06-10T22:24:34.904Z,23.90
2023-06-10T22:27:01.801Z,23.90
2023-06-10T22:29:28.357Z,24.00
2023-06-10T22:31:56.130Z,24.00
2023-06-10T22:34:23.058Z,23.90
2023-06-10T22:36:49.631Z,23.90
2023-06-10T22:39:16.278Z,23.80
2023-06-10T22:41:43.376Z,23.60
2023-06-10T22:44:10.794Z,23.50
2023-06-10T22:46:37.743Z,23.50
2023-06-10T22:49:04.837Z,23.50
2023-06-10T22:51:31.553Z,23.40
2023-06-10T22:53:58.288Z,23.40
2023-06-10T22:56:27.194Z,23.30
2023-06-10T22:58:54.015Z,23.20
2023-06-10T23:01:20.719Z,23.10
2023-06-10T23:03:47.444Z,23.10
2023-06-10T23:06:14.134Z,22.90
2023-06-10T23:08:40.686Z,22.90
2023-06-10T23:11:07.318Z,23.00
2023-06-10T23:13:34.026Z,23.00
2023-06-10T23:16:00.624Z,23.10
2023-06-10T23:18:27.361Z,23.20
2023-06-10T23:20:54.734Z,23.20
2023-06-10T23:23:21.290Z,23.00
2023-06-10T23:25:48.880Z,22.70
2023-06-10T23:28:15.599Z,22.50
2023-06-10T23:30:42.162Z,22.40
2023-06-10T23:33:08.936Z,22.30
2023-06-10T23:35:35.740Z,22.30
2023-06-10T23:38:02.406Z,22.40
2023-06-10T23:40:28.957Z,22.30
2023-06-10T23:42:55.558Z,22.30
2023-06-10T23:45:22.136Z,22.30
2023-06-10T23:47:48.696Z,22.30
2023-06-10T23:50:15.390Z,22.30
2023-06-10T23:52:41.930Z,22.30
2023-06-10T23:55:09.300Z,22.20
2023-06-10T23:57:36.303Z,22.10
